Time;durP1;ratioP1;P1;durP2;ratioP2;P2;SDS_P1;SDS_P2;PMS_P1;PMS_P2;Temp;Humidity;BMP_temperature;BMP_pressure;BME280_temperature;BME280_humidity;BME280_pressure;Samples;Min_cycle;Max_cycle;Signal;HPM_P1;HPM_P2
2021/10/10 00:01:21;;;;;;;29.77;9.40;;;10.70;55.00;;;;;;5046838;28;20479;-80
2021/10/10 00:03:47;;;;;;;;;;;10.70;55.10;;;;;;5048289;28;20367;-80
2021/10/10 00:06:13;;;;;;;21.25;8.20;;;10.70;55.20;;;;;;5046679;28;19924;-81
2021/10/10 00:08:38;;;;;;;;;;;10.80;55.20;;;;;;5047921;28;20028;-82
2021/10/10 00:11:04;;;;;;;24.58;9.00;;;10.70;55.30;;;;;;5046630;28;19915;-80
2021/10/10 00:13:29;;;;;;;;;;;10.70;55.80;;;;;;5046500;28;20455;-80
2021/10/10 00:15:55;;;;;;;21.48;8.00;;;10.80;55.30;;;;;;5047120;28;20407;-82
2021/10/10 00:18:21;;;;;;;;;;;10.70;55.40;;;;;;5047359;28;20025;-81
2021/10/10 00:20:46;;;;;;;20.98;9.65;;;10.80;55.70;;;;;;5047763;28;19905;-80
2021/10/10 00:23:12;;;;;;;;;;;10.70;55.40;;;;;;5048174;28;20047;-82
2021/10/10 00:25:37;;;;;;;16.63;7.65;;;10.70;55.80;;;;;;5047048;28;19908;-82
2021/10/10 00:28:03;;;;;;;21.67;8.18;;;10.70;55.90;;;;;;5046190;28;20049;-81
2021/10/10 00:30:29;;;;;;;;;;;10.70;56.00;;;;;;5046379;28;20033;-80
2021/10/10 00:32:54;;;;;;;23.75;7.90;;;10.70;55.90;;;;;;5046933;28;20373;-79
2021/10/10 00:35:20;;;;;;;;;;;10.60;56.00;;;;;;5047924;28;20476;-80
2021/10/10 00:37:46;;;;;;;19.95;7.45;;;10.60;55.80;;;;;;5045425;28;19919;-80
2021/10/10 00:40:12;;;;;;;;;;;10.70;55.10;;;;;;5046400;28;20033;-80
2021/10/10 00:42:38;;;;;;;20.70;7.60;;;10.70;55.60;;;;;;5045741;28;20396;-80
2021/10/10 00:45:04;;;;;;;;;;;10.60;55.40;;;;;;5045593;28;20057;-79
2021/10/10 00:47:30;;;;;;;19.65;7.25;;;10.70;55.60;;;;;;5046877;28;19971;-79
2021/10/10 00:49:55;;;;;;;23.80;8.52;;;10.70;55.30;;;;;;5045741;28;20124;-79
2021/10/10 00:52:21;;;;;;;;;;;10.70;55.20;;;;;;5047400;28;20055;-79
2021/10/10 00:54:48;;;;;;;16.48;7.25;;;10.70;55.20;;;;;;5047090;28;20304;-81
2021/10/10 00:57:16;;;;;;;23.23;7.78;;;10.60;55.80;;;;;;5046742;28;20036;-79
2021/10/10 00:59:46;;;;;;;18.23;7.78;;;10.60;57.10;;;;;;5046656;28;20056;-79
2021/10/10 01:02:13;;;;;;;18.55;7.55;;;10.60;56.90;;;;;;5046463;28;20032;-80
2021/10/10 01:04:41;;;;;;;20.02;7.32;;;10.60;57.10;;;;;;5045750;28;20021;-80
2021/10/10 01:07:07;;;;;;;21.00;6.65;;;10.50;56.80;;;;;;5045534;28;20028;-80
2021/10/10 01:09:36;;;;;;;;;;;10.50;56.30;;;;;;5046184;28;20109;-79
2021/10/10 01:12:07;;;;;;;17.20;6.63;;;10.50;56.40;;;;;;5045668;28;19967;-79
2021/10/10 01:14:34;;;;;;;20.38;7.05;;;10.50;56.70;;;;;;5044625;28;20029;-78
2021/10/10 01:17:00;;;;;;;18.27;7.18;;;10.40;56.30;;;;;;5046465;28;20040;-80
2021/10/10 01:19:32;;;;;;;;;;;10.40;56.80;;;;;;5046956;28;20032;-79
2021/10/10 01:22:00;;;;;;;19.15;6.97;;;10.30;56.60;;;;;;5045333;28;20353;-79
2021/10/10 01:24:26;;;;;;;17.85;7.88;;;10.40;55.90;;;;;;5046490;28;20029;-80
2021/10/10 01:26:51;;;;;;;;;;;10.40;55.50;;;;;;5046818;28;20500;-80
2021/10/10 01:29:17;;;;;;;21.85;6.88;;;10.30;56.00;;;;;;5046215;28;19909;-79
2021/10/10 01:31:43;;;;;;;;;;;10.30;56.20;;;;;;5047128;28;20429;-79
2021/10/10 01:34:09;;;;;;;20.10;7.82;;;10.30;56.40;;;;;;5044639;28;20003;-79
2021/10/10 01:36:35;;;;;;;;;;;10.30;55.80;;;;;;5045331;28;20048;-80
2021/10/10 01:39:00;;;;;;;16.10;6.82;;;10.40;55.60;;;;;;5046397;28;19959;-80
2021/10/10 01:41:26;;;;;;;;;;;10.30;55.40;;;;;;5045065;28;20626;-79
2021/10/10 01:43:51;;;;;;;16.55;6.90;;;10.40;55.00;;;;;;5044801;28;20043;-79
2021/10/10 01:46:17;;;;;;;29.50;7.57;;;10.40;55.40;;;;;;5043496;28;20041;-79
2021/10/10 01:48:42;;;;;;;;;;;10.40;54.90;;;;;;5044909;28;20103;-78
2021/10/10 01:51:11;;;;;;;18.38;7.30;;;10.30;55.40;;;;;;5042358;28;20028;-78
2021/10/10 01:53:37;;;;;;;23.75;8.57;;;10.40;55.00;;;;;;5039999;28;20054;-79
2021/10/10 01:56:03;;;;;;;;;;;10.40;55.10;;;;;;5037589;28;20098;-78
2021/10/10 01:58:28;;;;;;;22.15;7.32;;;10.40;55.10;;;;;;5042445;28;19916;-79
2021/10/10 02:00:54;;;;;;;;;;;10.30;55.30;;;;;;5043752;28;20462;-79
2021/10/10 02:03:20;;;;;;;22.52;7.88;;;10.30;55.40;;;;;;5044789;28;20436;-79
2021/10/10 02:05:46;;;;;;;23.55;7.43;;;10.30;55.30;;;;;;5043808;28;20051;-79
2021/10/10 02:08:12;;;;;;;21.55;7.32;;;10.30;54.90;;;;;;5044033;28;20045;-79
2021/10/10 02:10:37;;;;;;;;;;;10.30;55.30;;;;;;5036493;28;20076;-79
2021/10/10 02:13:03;;;;;;;23.08;8.05;;;10.20;55.40;;;;;;5044180;28;20339;-78
2021/10/10 02:15:29;;;;;;;25.95;7.25;;;10.20;54.90;;;;;;5045036;28;20032;-78
2021/10/10 02:17:54;;;;;;;;;;;10.20;55.00;;;;;;5043352;28;20114;-79
2021/10/10 02:20:20;;;;;;;21.50;8.05;;;10.30;54.50;;;;;;5043129;28;20449;-78
2021/10/10 02:22:45;;;;;;;23.33;7.95;;;10.30;54.90;;;;;;5046951;28;20060;-78
2021/10/10 02:25:11;;;;;;;;;;;10.40;54.10;;;;;;5047675;28;20059;-78
2021/10/10 02:27:36;;;;;;;30.27;8.73;;;10.40;54.10;;;;;;5046767;28;19923;-78
2021/10/10 02:30:05;;;;;;;25.25;7.85;;;10.50;54.10;;;;;;5046639;28;20445;-78
2021/10/10 02:32:30;;;;;;;24.55;8.55;;;10.40;54.40;;;;;;5045810;28;20076;-78
2021/10/10 02:34:56;;;;;;;;;;;10.30;54.50;;;;;;5048703;28;20034;-78
2021/10/10 02:37:22;;;;;;;26.25;9.13;;;10.30;54.40;;;;;;5048141;28;19956;-79
2021/10/10 02:39:48;;;;;;;;;;;10.30;54.60;;;;;;5044709;28;20063;-79
2021/10/10 02:42:13;;;;;;;23.58;10.50;;;10.30;54.30;;;;;;5045006;28;19913;-80
2021/10/10 02:44:39;;;;;;;23.92;8.18;;;10.20;54.80;;;;;;5048688;28;20079;-79
2021/10/10 02:47:05;;;;;;;;;;;10.30;54.60;;;;;;5048798;28;20557;-79
2021/10/10 02:49:30;;;;;;;18.60;8.73;;;10.20;54.80;;;;;;5048037;28;19904;-79
2021/10/10 02:51:56;;;;;;;;;;;10.20;54.90;;;;;;5049659;28;20527;-82
2021/10/10 02:54:22;;;;;;;17.92;8.45;;;10.10;55.60;;;;;;5048755;28;19917;-80
2021/10/10 02:56:47;;;;;;;24.98;8.75;;;10.10;55.10;;;;;;5048182;28;20080;-80
2021/10/10 02:59:13;;;;;;;32.00;9.40;;;10.20;54.70;;;;;;5048562;28;20033;-80
2021/10/10 03:01:38;;;;;;;;;;;10.20;55.10;;;;;;5049233;28;20087;-80
2021/10/10 03:04:04;;;;;;;27.50;9.23;;;10.20;54.90;;;;;;5048983;28;19909;-79
2021/10/10 03:06:29;;;;;;;19.55;8.55;;;10.20;55.10;;;;;;5049238;28;20095;-81
2021/10/10 03:08:55;;;;;;;22.88;9.52;;;10.10;55.30;;;;;;5047894;28;20033;-79
2021/10/10 03:11:21;;;;;;;;;;;10.20;55.10;;;;;;5048172;28;20044;-79
2021/10/10 03:13:46;;;;;;;22.60;9.25;;;10.30;54.90;;;;;;5046898;28;19915;-80
2021/10/10 03:16:12;;;;;;;24.13;7.82;;;10.10;55.50;;;;;;5047483;28;20033;-80
2021/10/10 03:18:38;;;;;;;;;;;10.10;56.00;;;;;;5049419;28;20036;-79
2021/10/10 03:21:03;;;;;;;20.48;8.48;;;10.00;55.90;;;;;;5048350;28;19908;-80
2021/10/10 03:23:29;;;;;;;;;;;10.00;56.10;;;;;;5049176;28;20059;-79
2021/10/10 03:25:54;;;;;;;19.17;8.18;;;10.00;56.00;;;;;;5046885;28;19959;-79
2021/10/10 03:28:20;;;;;;;;;;;10.00;56.40;;;;;;5048673;28;20043;-79
2021/10/10 03:30:45;;;;;;;22.98;8.45;;;9.90;56.70;;;;;;5048506;28;20099;-80
2021/10/10 03:33:11;;;;;;;24.55;9.07;;;9.90;57.30;;;;;;5047626;28;20110;-79
2021/10/10 03:35:37;;;;;;;28.10;8.95;;;9.90;58.10;;;;;;5048485;28;20207;-79
2021/10/10 03:38:03;;;;;;;28.48;9.30;;;9.90;58.40;;;;;;5046855;28;20059;-79
2021/10/10 03:40:29;;;;;;;;;;;9.90;58.60;;;;;;5047742;28;20029;-80
2021/10/10 03:42:54;;;;;;;20.58;8.40;;;9.80;58.40;;;;;;5047833;28;20732;-80
2021/10/10 03:45:20;;;;;;;;;;;9.80;58.90;;;;;;5047708;28;20048;-80
2021/10/10 03:47:46;;;;;;;27.25;9.45;;;9.80;58.40;;;;;;5048255;28;19908;-80
2021/10/10 03:50:11;;;;;;;;;;;9.80;58.60;;;;;;5048362;28;20033;-80
2021/10/10 03:52:37;;;;;;;26.42;8.50;;;9.80;58.60;;;;;;5048154;28;19920;-79
2021/10/10 03:57:31;;;;;;;26.02;9.93;;;9.80;58.00;;;;;;5047321;28;19925;-79
2021/10/10 04:00:04;;;;;;;;;;;9.90;57.80;;;;;;5048463;28;20029;-80
2021/10/10 04:02:30;;;;;;;24.88;10.05;;;9.90;58.00;;;;;;5047782;28;19955;-80
2021/10/10 04:04:56;;;;;;;;;;;9.90;58.00;;;;;;5048338;28;20021;-79
2021/10/10 04:07:22;;;;;;;28.65;9.43;;;9.90;57.80;;;;;;5047774;28;19913;-79
2021/10/10 04:09:47;;;;;;;;;;;9.90;57.70;;;;;;5046793;28;20055;-80
2021/10/10 04:12:13;;;;;;;27.30;8.85;;;9.90;57.80;;;;;;5045536;28;20381;-79
2021/10/10 04:14:39;;;;;;;18.35;8.38;;;9.90;57.80;;;;;;5047757;28;20057;-80
2021/10/10 04:17:05;;;;;;;;;;;10.00;57.30;;;;;;5046826;28;20090;-79
2021/10/10 04:19:31;;;;;;;21.05;8.25;;;10.00;57.50;;;;;;5047662;28;19916;-80
2021/10/10 04:21:57;;;;;;;21.73;9.05;;;10.00;57.60;;;;;;5047559;28;20025;-79
2021/10/10 04:24:23;;;;;;;21.25;8.32;;;10.10;57.60;;;;;;5047330;28;20163;-80
2021/10/10 04:26:49;;;;;;;28.17;8.73;;;10.00;57.90;;;;;;5045448;28;20021;-78
2021/10/10 04:29:15;;;;;;;29.67;9.10;;;10.00;57.90;;;;;;5047231;28;20029;-80
2021/10/10 04:31:40;;;;;;;;;;;10.00;58.00;;;;;;5047750;28;20032;-79
2021/10/10 04:34:06;;;;;;;25.33;9.13;;;9.90;58.10;;;;;;5046492;28;19908;-79
2021/10/10 04:36:31;;;;;;;;;;;9.90;57.40;;;;;;5046116;28;20588;-78
2021/10/10 04:38:57;;;;;;;23.15;8.38;;;10.00;57.40;;;;;;5047215;28;19908;-78
2021/10/10 04:41:22;;;;;;;;;;;10.00;57.00;;;;;;5047100;28;20512;-80
2021/10/10 04:43:48;;;;;;;20.77;8.38;;;10.00;56.60;;;;;;5047295;28;19951;-78
2021/10/10 04:46:14;;;;;;;27.55;8.77;;;10.10;56.60;;;;;;5045573;28;20041;-79
2021/10/10 04:48:39;;;;;;;;;;;10.10;56.90;;;;;;5047169;28;20033;-80
2021/10/10 04:51:05;;;;;;;36.40;9.68;;;10.00;56.80;;;;;;5046861;28;20388;-80
2021/10/10 04:53:31;;;;;;;19.98;8.90;;;10.00;56.90;;;;;;5046501;28;20048;-80
2021/10/10 04:55:56;;;;;;;;;;;10.00;56.50;;;;;;5047264;28;20041;-79
2021/10/10 04:58:22;;;;;;;23.15;9.23;;;10.00;56.60;;;;;;5046029;28;19954;-79
2021/10/10 05:00:48;;;;;;;29.65;8.77;;;10.00;56.40;;;;;;5047196;28;20074;-81
2021/10/10 05:03:13;;;;;;;20.77;8.75;;;10.10;56.30;;;;;;5045789;28;20513;-80
2021/10/10 05:05:42;;;;;;;;;;;10.10;56.00;;;;;;5046956;28;20029;-79
2021/10/10 05:08:09;;;;;;;22.42;8.90;;;10.10;55.50;;;;;;5045434;28;19983;-80
2021/10/10 05:10:35;;;;;;;24.30;8.70;;;10.10;55.80;;;;;;5045833;28;20646;-79
2021/10/10 05:13:01;;;;;;;17.20;9.25;;;10.20;56.10;;;;;;5044831;28;20017;-78
2021/10/10 05:15:26;;;;;;;;;;;10.10;56.10;;;;;;5046665;28;20035;-79
2021/10/10 05:17:52;;;;;;;24.60;9.25;;;10.00;55.70;;;;;;5046759;28;20330;-79
2021/10/10 05:20:17;;;;;;;;;;;10.00;55.60;;;;;;5046388;28;20029;-80
2021/10/10 05:22:43;;;;;;;22.83;8.95;;;10.10;55.70;;;;;;5045159;28;19913;-80
2021/10/10 05:25:09;;;;;;;;;;;10.10;55.50;;;;;;5045442;28;20499;-80
2021/10/10 05:27:34;;;;;;;21.55;9.15;;;10.10;55.90;;;;;;5046160;28;20384;-79
2021/10/10 05:30:00;;;;;;;;;;;10.00;56.60;;;;;;5046710;28;20083;-78
2021/10/10 05:32:25;;;;;;;21.60;9.02;;;10.00;57.30;;;;;;5046131;28;19909;-80
2021/10/10 05:34:51;;;;;;;;;;;10.00;58.60;;;;;;5047073;28;20059;-80
2021/10/10 05:37:17;;;;;;;29.35;8.85;;;10.00;58.50;;;;;;5046267;28;19939;-80
2021/10/10 05:39:42;;;;;;;;;;;10.00;59.30;;;;;;5047162;28;20079;-79
2021/10/10 05:42:08;;;;;;;24.23;8.75;;;9.90;59.30;;;;;;5044820;28;19946;-79
2021/10/10 05:44:33;;;;;;;23.52;9.07;;;9.80;61.30;;;;;;5045911;28;20561;-82
2021/10/10 05:46:59;;;;;;;25.60;9.45;;;9.70;61.50;;;;;;5045793;28;20094;-81
2021/10/10 05:49:25;;;;;;;17.85;8.98;;;9.60;62.40;;;;;;5045079;28;20041;-80
2021/10/10 05:51:51;;;;;;;;;;;9.60;63.80;;;;;;5045060;28;20116;-80
2021/10/10 05:54:17;;;;;;;22.80;8.68;;;9.70;62.10;;;;;;5044770;28;19916;-80
2021/10/10 05:56:43;;;;;;;25.95;9.63;;;9.70;61.80;;;;;;5046363;28;20132;-80
2021/10/10 05:59:10;;;;;;;;;;;9.80;62.20;;;;;;5050455;28;20203;-80
2021/10/10 06:01:36;;;;;;;;;;;9.70;63.80;;;;;;5049531;28;19905;-80
2021/10/10 06:04:04;;;;;;;30.40;11.45;;;9.80;65.60;;;;;;5050386;28;19908;-79
2021/10/10 06:06:30;;;;;;;30.67;10.40;;;9.80;66.00;;;;;;5048853;28;20039;-80
2021/10/10 06:08:55;;;;;;;;;;;9.90;66.40;;;;;;5050304;28;20025;-79
2021/10/10 06:11:21;;;;;;;31.63;9.82;;;9.80;67.10;;;;;;5050087;28;20596;-81
2021/10/10 06:13:47;;;;;;;29.85;10.30;;;9.90;67.10;;;;;;5049085;28;20040;-80
2021/10/10 06:16:13;;;;;;;;;;;9.90;68.90;;;;;;5049062;28;20045;-81
2021/10/10 06:18:39;;;;;;;19.52;8.98;;;9.90;70.90;;;;;;5048727;28;20305;-81
2021/10/10 06:21:05;;;;;;;32.83;10.80;;;9.90;70.60;;;;;;5048617;28;20025;-80
2021/10/10 06:23:30;;;;;;;;;;;9.80;72.50;;;;;;5050267;28;20079;-79
2021/10/10 06:25:56;;;;;;;26.98;11.25;;;9.80;73.40;;;;;;5049904;28;19905;-81
2021/10/10 06:28:21;;;;;;;;;;;9.80;71.20;;;;;;5050024;28;20029;-81
2021/10/10 06:30:47;;;;;;;28.35;10.70;;;9.70;73.00;;;;;;5048392;28;19983;-80
2021/10/10 06:33:13;;;;;;;26.55;11.00;;;9.70;74.10;;;;;;5048470;28;20037;-80
2021/10/10 06:35:38;;;;;;;;;;;9.80;75.00;;;;;;5049679;28;20056;-81
2021/10/10 06:38:04;;;;;;;18.30;10.52;;;9.90;74.50;;;;;;5049256;28;19920;-81
2021/10/10 06:40:29;;;;;;;22.17;10.18;;;10.00;74.10;;;;;;5048980;28;20037;-79
2021/10/10 06:42:55;;;;;;;;;;;10.00;68.70;;;;;;5048866;28;20493;-80
2021/10/10 06:45:21;;;;;;;35.30;13.20;;;10.20;70.60;;;;;;5050002;28;19916;-80
2021/10/10 06:47:46;;;;;;;29.05;10.40;;;10.40;65.20;;;;;;5048367;28;20129;-80
2021/10/10 06:50:12;;;;;;;;;;;10.60;60.50;;;;;;5049893;28;20537;-78
2021/10/10 06:52:37;;;;;;;26.50;9.50;;;10.80;58.80;;;;;;5047614;28;19916;-80
2021/10/10 06:55:03;;;;;;;26.88;10.18;;;10.90;58.60;;;;;;5047837;28;20033;-80
2021/10/10 06:57:30;;;;;;;;;;;10.80;56.80;;;;;;5049535;28;20037;-80
2021/10/10 07:00:00;;;;;;;27.65;10.95;;;10.90;57.80;;;;;;5048018;28;19973;-80
2021/10/10 07:02:27;;;;;;;27.70;9.70;;;11.10;56.00;;;;;;5048636;28;20076;-78
2021/10/10 07:04:54;;;;;;;29.25;10.32;;;11.20;56.30;;;;;;5048003;28;20152;-80
2021/10/10 07:07:20;;;;;;;29.75;10.40;;;11.20;56.80;;;;;;5047613;28;20029;-79
2021/10/10 07:09:46;;;;;;;;;;;11.30;55.30;;;;;;5048514;28;20031;-79
2021/10/10 07:12:11;;;;;;;24.35;9.60;;;11.40;55.50;;;;;;5048659;28;19951;-80
2021/10/10 07:14:37;;;;;;;;;;;11.60;54.70;;;;;;5049435;28;20437;-80
2021/10/10 07:17:03;;;;;;;94.93;38.65;;;11.70;54.60;;;;;;5047499;28;19971;-80
2021/10/10 07:19:38;;;;;;;;;;;12.10;53.50;;;;;;5047727;28;20025;-80
2021/10/10 07:22:15;;;;;;;29.75;12.13;;;12.10;51.90;;;;;;5048849;28;20666;-80
2021/10/10 07:27:25;;;;;;;21.73;9.00;;;12.30;52.40;;;;;;5048085;28;20079;-80
2021/10/10 07:29:50;;;;;;;;;;;12.70;50.80;;;;;;5048856;28;20056;-80
2021/10/10 07:32:16;;;;;;;26.55;10.23;;;12.80;50.10;;;;;;5048741;28;19912;-79
2021/10/10 07:34:41;;;;;;;;;;;12.80;51.30;;;;;;5049225;28;20033;-80
2021/10/10 07:37:07;;;;;;;19.98;8.43;;;12.90;50.90;;;;;;5047855;28;19978;-79
2021/10/10 07:39:33;;;;;;;;;;;13.00;51.10;;;;;;5048640;28;20082;-79
2021/10/10 07:41:58;;;;;;;19.65;9.02;;;13.10;48.80;;;;;;5048153;28;19954;-80
2021/10/10 07:44:28;;;;;;;;;;;12.90;50.70;;;;;;5048583;28;20035;-80
2021/10/10 07:47:47;;;;;;;27.67;9.18;;;13.00;50.40;;;;;;5046936;28;20015;-79
2021/10/10 07:49:44;;;;;;;26.17;8.32;;;12.90;49.60;;;;;;5041911;28;20057;-80
2021/10/10 07:52:10;;;;;;;22.63;8.30;;;12.70;49.30;;;;;;5046595;28;20056;-80
2021/10/10 07:54:36;;;;;;;25.25;9.07;;;12.60;49.30;;;;;;5046226;28;20083;-80
2021/10/10 07:57:02;;;;;;;;;;;12.50;50.00;;;;;;5046627;28;20060;-80
2021/10/10 07:59:28;;;;;;;21.17;8.07;;;12.50;50.90;;;;;;5046296;28;19955;-80
2021/10/10 08:01:53;;;;;;;;;;;12.40;50.50;;;;;;5047223;28;20611;-79
2021/10/10 08:04:19;;;;;;;17.02;8.57;;;12.20;50.70;;;;;;5047298;28;20409;-80
2021/10/10 08:06:47;;;;;;;18.13;8.52;;;12.10;51.50;;;;;;5047751;28;20028;-78
2021/10/10 08:09:14;;;;;;;28.13;10.15;;;12.20;51.70;;;;;;5046953;28;20113;-80
2021/10/10 08:11:40;;;;;;;20.17;8.32;;;12.40;50.10;;;;;;5046426;28;20575;-79
2021/10/10 08:14:06;;;;;;;16.80;7.90;;;12.40;49.70;;;;;;5046301;28;20035;-79
2021/10/10 08:16:31;;;;;;;;;;;12.50;50.20;;;;;;5047626;28;20033;-79
2021/10/10 08:18:57;;;;;;;15.82;8.90;;;12.60;50.40;;;;;;5045841;28;19956;-78
2021/10/10 08:21:22;;;;;;;;;;;12.70;50.10;;;;;;5046429;28;20501;-79
2021/10/10 08:23:48;;;;;;;18.52;9.93;;;12.60;49.90;;;;;;5047469;28;20026;-78
2021/10/10 08:26:14;;;;;;;;;;;12.50;50.20;;;;;;5047480;28;20043;-79
2021/10/10 08:28:39;;;;;;;25.80;8.65;;;12.60;51.10;;;;;;5047118;28;19958;-79
2021/10/10 08:31:05;;;;;;;;;;;12.70;50.50;;;;;;5046432;28;20043;-79
2021/10/10 08:33:30;;;;;;;15.55;7.43;;;13.00;50.70;;;;;;5045556;28;19915;-80
2021/10/10 08:35:56;;;;;;;;;;;13.10;49.50;;;;;;5047807;28;20127;-79
2021/10/10 08:38:22;;;;;;;19.92;8.25;;;13.30;49.80;;;;;;5045376;28;19908;-79
2021/10/10 08:40:47;;;;;;;;;;;13.10;49.20;;;;;;5045598;28;20056;-80
2021/10/10 08:43:17;;;;;;;17.33;8.27;;;13.30;49.70;;;;;;5047430;28;19927;-80
2021/10/10 08:45:45;;;;;;;20.95;8.50;;;13.40;50.10;;;;;;5046829;28;20013;-80
2021/10/10 08:48:10;;;;;;;23.58;8.20;;;13.60;49.50;;;;;;5046697;28;20064;-79
2021/10/10 08:50:37;;;;;;;;;;;13.80;48.50;;;;;;5047521;28;20045;-80
2021/10/10 08:53:02;;;;;;;21.13;7.22;;;14.20;46.70;;;;;;5044928;28;19917;-79
2021/10/10 08:55:30;;;;;;;;;;;14.70;47.10;;;;;;5045807;28;20091;-80
2021/10/10 08:57:59;;;;;;;25.08;7.50;;;15.10;45.30;;;;;;5046494;28;19920;-80
2021/10/10 09:00:33;;;;;;;21.58;7.28;;;15.40;45.30;;;;;;5046911;28;20052;-80
2021/10/10 09:03:00;;;;;;;19.95;7.15;;;15.60;45.40;;;;;;5045053;28;20037;-79
2021/10/10 09:05:26;;;;;;;21.55;6.68;;;15.60;43.90;;;;;;5046420;28;20104;-79
2021/10/10 09:07:55;;;;;;;15.60;6.90;;;15.30;44.20;;;;;;5046370;28;20032;-79
2021/10/10 09:10:29;;;;;;;20.30;7.88;;;15.40;44.00;;;;;;5046265;28;20017;-80
2021/10/10 09:13:12;;;;;;;29.77;11.55;;;15.40;43.50;;;;;;5046096;28;20036;-80
2021/10/10 09:15:43;;;;;;;23.80;7.03;;;15.50;43.50;;;;;;5046184;28;20112;-80
2021/10/10 09:18:09;;;;;;;14.45;6.20;;;15.40;43.20;;;;;;5046622;28;20062;-80
2021/10/10 09:20:39;;;;;;;14.40;6.90;;;15.30;43.10;;;;;;5046032;28;20545;-80
2021/10/10 09:23:30;;;;;;;17.00;6.82;;;15.10;44.10;;;;;;5046178;28;20040;-80
2021/10/10 09:25:58;;;;;;;14.27;6.22;;;15.10;43.50;;;;;;5044655;28;20359;-78
2021/10/10 09:28:26;;;;;;;21.92;7.45;;;15.00;43.10;;;;;;5046454;28;20051;-79
2021/10/10 09:30:57;;;;;;;17.10;6.95;;;14.80;44.20;;;;;;5045272;28;20580;-79
2021/10/10 09:33:55;;;;;;;21.38;7.43;;;14.70;43.70;;;;;;5046690;28;20498;-79
2021/10/10 09:36:29;;;;;;;22.35;7.32;;;14.80;44.50;;;;;;5044344;28;20882;-78
2021/10/10 09:44:03;;;;;;;22.83;6.88;;;14.60;44.50;;;;;;5045980;28;20057;-79
2021/10/10 09:46:30;;;;;;;22.50;6.68;;;14.60;44.40;;;;;;5045012;28;20123;-80
2021/10/10 09:48:57;;;;;;;20.08;7.45;;;14.50;43.80;;;;;;5046430;28;20055;-79
2021/10/10 09:51:29;;;;;;;20.05;8.52;;;14.30;45.00;;;;;;5045877;28;20036;-80
2021/10/10 09:54:04;;;;;;;22.58;7.00;;;14.20;45.50;;;;;;5044299;28;20457;-80
2021/10/10 09:56:31;;;;;;;19.85;6.80;;;14.20;45.00;;;;;;5045891;28;20132;-80
2021/10/10 09:58:56;;;;;;;17.95;5.95;;;14.20;45.20;;;;;;5046251;28;20029;-78
2021/10/10 10:01:23;;;;;;;;;;;14.20;44.80;;;;;;5045030;28;20075;-79
2021/10/10 10:04:05;;;;;;;16.03;6.57;;;14.20;44.90;;;;;;5044899;28;19935;-78
2021/10/10 10:06:35;;;;;;;16.30;5.72;;;14.30;45.10;;;;;;5044529;28;20629;-79
2021/10/10 10:09:06;;;;;;;12.88;5.80;;;14.20;45.20;;;;;;5044122;28;20028;-80
2021/10/10 10:11:40;;;;;;;17.42;6.00;;;14.30;45.30;;;;;;5044598;28;20127;-80
2021/10/10 10:14:09;;;;;;;13.98;6.45;;;14.40;44.80;;;;;;5044769;28;20070;-80
2021/10/10 10:16:40;;;;;;;14.50;6.43;;;14.50;44.40;;;;;;5044433;28;20044;-78
2021/10/10 10:19:09;;;;;;;22.27;6.75;;;14.50;44.10;;;;;;5044835;28;20029;-80
2021/10/10 10:21:35;;;;;;;26.55;6.53;;;14.40;45.00;;;;;;5046040;28;20094;-79
2021/10/10 10:24:01;;;;;;;;;;;14.50;44.80;;;;;;5045560;28;20485;-77
2021/10/10 10:26:32;;;;;;;32.95;6.47;;;14.50;44.10;;;;;;5045632;28;19905;-79
2021/10/10 10:29:04;;;;;;;21.20;6.50;;;14.40;44.20;;;;;;5045562;28;20029;-79
2021/10/10 10:31:31;;;;;;;27.88;9.77;;;14.50;44.90;;;;;;5045771;28;20025;-80
2021/10/10 10:34:18;;;;;;;21.90;11.00;;;14.60;44.70;;;;;;5045456;28;20116;-79
2021/10/10 10:36:49;;;;;;;25.90;5.50;;;14.60;44.50;;;;;;5044569;28;20226;-79
2021/10/10 10:39:50;;;;;;;16.42;5.22;;;14.60;44.40;;;;;;5045407;28;20025;-79
2021/10/10 10:42:22;;;;;;;17.83;6.15;;;14.50;44.60;;;;;;5003682;28;20084;-80
2021/10/10 10:44:51;;;;;;;20.98;6.18;;;14.60;44.60;;;;;;5042195;28;20060;-79
2021/10/10 10:47:24;;;;;;;21.20;6.53;;;14.60;44.70;;;;;;5049154;28;20119;-79
2021/10/10 10:49:57;;;;;;;17.05;5.90;;;14.80;44.50;;;;;;5047792;28;20446;-81
2021/10/10 10:52:26;;;;;;;18.27;5.97;;;14.90;44.60;;;;;;5048247;28;20224;-79
2021/10/10 10:54:57;;;;;;;16.10;5.85;;;14.90;44.10;;;;;;5047901;28;20024;-79
2021/10/10 10:57:30;;;;;;;14.00;5.93;;;15.00;44.40;;;;;;5048985;28;20044;-78
2021/10/10 11:00:05;;;;;;;19.92;5.65;;;14.90;44.20;;;;;;5048830;28;20716;-80
2021/10/10 11:02:49;;;;;;;19.95;7.15;;;15.00;43.80;;;;;;5049050;28;20021;-80
2021/10/10 11:05:31;;;;;;;15.10;6.28;;;15.10;44.40;;;;;;5047735;28;20056;-80
2021/10/10 11:08:17;;;;;;;11.23;5.25;;;15.30;43.60;;;;;;5047047;28;20496;-79
2021/10/10 11:11:04;;;;;;;12.63;5.18;;;15.50;43.50;;;;;;5037103;28;20040;-78
2021/10/10 11:13:35;;;;;;;14.05;6.15;;;15.60;43.00;;;;;;5048871;28;20025;-79
2021/10/10 11:16:10;;;;;;;19.88;6.72;;;15.70;42.90;;;;;;5046852;28;20059;-79
2021/10/10 11:18:54;;;;;;;18.10;6.00;;;15.70;43.90;;;;;;5048407;28;20028;-79
2021/10/10 11:21:23;;;;;;;18.17;5.47;;;15.80;43.80;;;;;;5048763;28;20040;-79
2021/10/10 11:23:52;;;;;;;18.33;5.45;;;15.90;43.40;;;;;;5048009;28;20402;-79
2021/10/10 11:26:19;;;;;;;19.42;6.80;;;16.00;43.00;;;;;;5047941;28;20025;-77
2021/10/10 11:28:50;;;;;;;17.98;5.75;;;16.10;42.60;;;;;;5048562;28;20091;-78
2021/10/10 11:31:21;;;;;;;22.17;9.85;;;16.00;42.20;;;;;;5047856;28;20091;-80
2021/10/10 11:33:56;;;;;;;13.68;5.53;;;16.00;42.60;;;;;;5048263;28;20025;-80
2021/10/10 11:36:46;;;;;;;13.88;7.20;;;16.00;42.30;;;;;;5046536;28;20033;-79
2021/10/10 11:39:15;;;;;;;15.73;6.93;;;16.00;42.90;;;;;;5048045;28;20509;-77
2021/10/10 11:41:56;;;;;;;19.90;7.63;;;15.90;42.40;;;;;;5046271;28;20025;-79
2021/10/10 11:44:35;;;;;;;20.40;5.82;;;16.00;42.70;;;;;;5048110;28;20039;-79
2021/10/10 11:47:03;;;;;;;17.95;6.95;;;16.00;42.60;;;;;;5048192;28;20032;-79
2021/10/10 11:52:07;;;;;;;24.48;5.25;;;16.10;42.70;;;;;;5047283;28;20025;-80
2021/10/10 11:54:41;;;;;;;12.25;5.32;;;16.00;42.10;;;;;;5045761;28;20037;-80
2021/10/10 11:57:09;;;;;;;23.25;5.55;;;16.00;43.40;;;;;;5047798;28;20037;-79
2021/10/10 11:59:52;;;;;;;19.10;5.20;;;16.10;43.00;;;;;;5047959;28;20087;-80
2021/10/10 12:02:19;;;;;;;14.57;4.45;;;16.30;43.20;;;;;;5046407;28;20036;-78
2021/10/10 12:04:59;;;;;;;14.63;4.88;;;16.30;42.80;;;;;;5046001;28;20799;-79
2021/10/10 12:07:29;;;;;;;15.85;5.25;;;16.30;43.70;;;;;;5045633;28;20029;-79
2021/10/10 12:09:55;;;;;;;16.25;5.30;;;16.30;43.00;;;;;;5045971;28;20037;-80
2021/10/10 12:12:21;;;;;;;;;;;16.40;44.00;;;;;;5046740;28;20029;-80
2021/10/10 12:14:55;;;;;;;15.02;4.97;;;16.40;42.40;;;;;;5047449;28;20017;-79
2021/10/10 12:17:44;;;;;;;10.20;4.88;;;16.20;42.90;;;;;;5047454;28;20505;-79
2021/10/10 12:20:15;;;;;;;12.82;4.53;;;16.00;42.70;;;;;;5047088;28;20033;-79
2021/10/10 12:23:11;;;;;;;34.15;4.97;;;15.80;42.90;;;;;;5045869;28;20083;-79
2021/10/10 12:25:40;;;;;;;13.27;4.60;;;15.70;42.90;;;;;;5038637;28;20076;-79
2021/10/10 12:28:14;;;;;;;30.33;11.55;;;15.50;43.70;;;;;;5044487;28;20470;-80
2021/10/10 12:30:53;;;;;;;28.75;11.77;;;15.40;44.40;;;;;;5045879;28;20097;-77
2021/10/10 12:33:22;;;;;;;35.50;18.98;;;15.50;44.70;;;;;;5047045;28;20086;-79
2021/10/10 12:36:05;;;;;;;41.30;15.80;;;15.50;43.80;;;;;;5046950;28;20035;-80
2021/10/10 12:38:40;;;;;;;31.65;11.82;;;15.40;44.20;;;;;;5046829;28;20041;-78
2021/10/10 12:41:21;;;;;;;15.90;7.60;;;15.50;44.70;;;;;;5045822;28;20055;-78
2021/10/10 12:43:55;;;;;;;16.27;5.78;;;15.50;44.30;;;;;;5046956;28;20037;-80
2021/10/10 12:46:23;;;;;;;16.27;4.15;;;15.60;43.80;;;;;;5045223;28;20036;-80
2021/10/10 12:49:01;;;;;;;17.75;4.53;;;15.70;43.40;;;;;;5047232;28;20024;-79
2021/10/10 12:51:28;;;;;;;13.93;3.58;;;15.90;43.90;;;;;;5045983;28;20036;-79
2021/10/10 12:54:16;;;;;;;11.18;3.92;;;15.90;44.80;;;;;;5045067;28;20075;-79
2021/10/10 12:56:55;;;;;;;15.43;4.68;;;16.00;43.80;;;;;;5046879;28;20048;-80
2021/10/10 12:59:25;;;;;;;14.77;4.07;;;16.10;43.20;;;;;;5045575;28;20029;-80
2021/10/10 13:01:51;;;;;;;9.27;3.40;;;16.00;43.90;;;;;;5045698;28;20028;-78
2021/10/10 13:04:16;;;;;;;;;;;16.00;43.80;;;;;;5044893;28;20632;-79
2021/10/10 13:06:47;;;;;;;14.77;3.85;;;15.90;43.90;;;;;;5042930;28;19921;-78
2021/10/10 13:09:14;;;;;;;16.42;4.22;;;15.80;43.10;;;;;;5044668;28;20075;-78
2021/10/10 13:11:41;;;;;;;14.90;5.03;;;15.80;43.50;;;;;;5040611;28;20084;-80
2021/10/10 13:14:07;;;;;;;29.30;11.05;;;15.80;43.80;;;;;;5045457;28;20025;-79
2021/10/10 13:16:33;;;;;;;;;;;15.80;43.50;;;;;;5046645;28;20021;-79
2021/10/10 13:18:58;;;;;;;13.30;6.75;;;15.90;43.50;;;;;;5046477;28;19915;-79